Time;durP1;ratioP1;P1;durP2;ratioP2;P2;SDS_P1;SDS_P2;PMS_P1;PMS_P2;Temp;Humidity;BMP_temperature;BMP_pressure;BME280_temperature;BME280_humidity;BME280_pressure;Samples;Min_cycle;Max_cycle;Signal;HPM_P1;HPM_P2
2021/09/13 00:00:48;;;;;;;10.50;9.43;;;17.70;1.00;;;;;;5053266;28;20448;-80
2021/09/13 00:03:16;;;;;;;10.07;9.13;;;17.70;1.00;;;;;;5031364;28;22080;-81
2021/09/13 00:05:43;;;;;;;9.93;8.93;;;17.70;1.00;;;;;;5049459;28;20455;-80
2021/09/13 00:08:12;;;;;;;10.73;9.77;;;17.60;1.00;;;;;;5048394;28;20738;-80
2021/09/13 00:10:42;;;;;;;10.60;9.60;;;17.60;1.00;;;;;;5041190;28;20423;-81
2021/09/13 00:13:09;;;;;;;10.37;9.37;;;17.50;1.00;;;;;;5027196;28;27066;-82
2021/09/13 00:15:36;;;;;;;11.00;9.90;;;17.50;1.00;;;;;;5023496;28;20456;-82
2021/09/13 00:18:02;;;;;;;11.83;10.63;;;17.50;1.00;;;;;;5022334;28;20520;-81
2021/09/13 00:20:31;;;;;;;12.37;11.20;;;17.50;1.00;;;;;;5023887;28;20469;-84
2021/09/13 00:22:58;;;;;;;11.57;10.47;;;17.40;1.00;;;;;;5023534;28;23755;-83
2021/09/13 00:25:25;;;;;;;12.53;10.60;;;17.40;1.00;;;;;;5023867;28;20451;-81
2021/09/13 00:27:53;;;;;;;11.20;10.20;;;17.40;1.00;;;;;;5025055;28;20423;-82
2021/09/13 00:30:19;;;;;;;11.70;10.53;;;17.40;1.00;;;;;;5027508;28;21297;-81
2021/09/13 00:32:46;;;;;;;12.53;11.23;;;17.30;1.00;;;;;;5020302;28;20587;-83
2021/09/13 00:35:13;;;;;;;11.93;10.83;;;17.30;1.00;;;;;;5020619;28;20452;-82
2021/09/13 00:37:41;;;;;;;12.43;11.13;;;17.20;1.00;;;;;;5018911;28;21207;-82
2021/09/13 00:40:09;;;;;;;11.53;10.47;;;17.20;1.00;;;;;;5023092;28;20476;-82
2021/09/13 00:42:35;;;;;;;12.00;9.90;;;17.10;1.00;;;;;;5019209;28;20455;-82
2021/09/13 00:45:03;;;;;;;13.43;12.10;;;17.10;1.00;;;;;;5019565;28;20476;-82
2021/09/13 00:47:30;;;;;;;12.33;11.13;;;17.00;1.00;;;;;;5026378;28;20448;-82
2021/09/13 00:49:57;;;;;;;13.43;12.07;;;16.90;1.00;;;;;;5022295;28;20554;-83
2021/09/13 00:52:23;;;;;;;12.77;11.57;;;16.90;1.00;;;;;;5021668;28;20441;-82
2021/09/13 00:54:52;;;;;;;13.00;11.67;;;16.80;1.00;;;;;;5001960;28;20546;-82
2021/09/13 00:57:19;;;;;;;13.33;11.30;;;16.80;1.00;;;;;;5010556;28;20458;-83
2021/09/13 00:59:45;;;;;;;12.87;11.60;;;16.80;1.00;;;;;;5022429;28;20451;-82
2021/09/13 01:02:12;;;;;;;14.00;11.77;;;16.80;1.00;;;;;;5038323;28;20902;-82
2021/09/13 01:04:39;;;;;;;12.90;11.67;;;16.70;1.00;;;;;;5033986;28;20520;-82
2021/09/13 01:07:06;;;;;;;12.63;11.43;;;16.70;1.00;;;;;;5022109;28;20454;-82
2021/09/13 01:09:34;;;;;;;13.47;12.17;;;16.70;1.00;;;;;;5019656;28;20533;-82
2021/09/13 01:12:02;;;;;;;13.37;11.43;;;16.60;1.00;;;;;;5021758;28;20509;-83
2021/09/13 01:14:35;;;;;;;12.57;11.37;;;16.60;1.00;;;;;;4999532;28;20499;-82
2021/09/13 01:17:02;;;;;;;13.00;11.67;;;16.50;1.00;;;;;;5022181;28;20588;-82
2021/09/13 01:19:29;;;;;;;12.97;11.50;;;16.40;1.00;;;;;;5025287;28;20464;-84
2021/09/13 01:21:59;;;;;;;13.40;12.17;;;16.40;1.00;;;;;;5019907;28;20475;-81
2021/09/13 01:24:27;;;;;;;13.03;11.83;;;16.30;1.00;;;;;;5029116;28;21087;-82
2021/09/13 01:26:57;;;;;;;12.77;11.57;;;16.30;1.00;;;;;;5020312;28;21069;-83
2021/09/13 01:29:23;;;;;;;15.73;14.40;;;16.30;1.00;;;;;;4999156;28;20471;-82
2021/09/13 01:31:50;;;;;;;13.23;12.03;;;16.30;1.00;;;;;;5022281;28;20488;-82
2021/09/13 01:34:17;;;;;;;14.83;13.23;;;16.30;1.00;;;;;;5020400;28;20946;-82
2021/09/13 01:36:44;;;;;;;15.00;12.90;;;16.20;1.00;;;;;;5005806;28;21290;-82
2021/09/13 01:39:10;;;;;;;14.83;13.43;;;16.30;1.00;;;;;;5021923;28;21388;-82
2021/09/13 01:41:39;;;;;;;13.60;12.20;;;16.30;1.00;;;;;;5019781;28;20518;-82
2021/09/13 01:44:06;;;;;;;14.13;12.63;;;16.30;1.00;;;;;;5019475;28;21253;-82
2021/09/13 01:46:32;;;;;;;13.17;11.87;;;16.30;1.00;;;;;;5016850;28;21316;-83
2021/09/13 01:48:59;;;;;;;13.47;12.17;;;16.20;1.00;;;;;;5020724;28;21287;-82
2021/09/13 01:51:26;;;;;;;14.20;12.83;;;16.30;1.00;;;;;;5022857;28;20558;-82
2021/09/13 01:53:53;;;;;;;14.30;13.00;;;16.20;1.00;;;;;;5019942;28;20466;-84
2021/09/13 01:56:19;;;;;;;14.23;12.83;;;16.20;1.00;;;;;;5025288;28;20502;-82
2021/09/13 01:58:47;;;;;;;12.90;11.70;;;16.20;1.00;;;;;;5027667;28;20482;-82
2021/09/13 02:01:14;;;;;;;13.00;11.70;;;16.20;1.00;;;;;;5023128;28;20423;-82
2021/09/13 02:03:41;;;;;;;14.43;13.03;;;16.20;1.00;;;;;;5020791;28;21377;-82
2021/09/13 02:06:07;;;;;;;12.63;11.33;;;16.20;1.00;;;;;;5003616;28;21486;-80
2021/09/13 02:08:34;;;;;;;13.17;11.97;;;16.20;1.00;;;;;;5022971;28;20455;-82
2021/09/13 02:11:02;;;;;;;14.23;12.80;;;16.10;1.00;;;;;;5019005;28;20658;-82
2021/09/13 02:13:29;;;;;;;13.93;12.73;;;16.10;1.00;;;;;;5038670;28;20454;-82
2021/09/13 02:15:57;;;;;;;15.97;14.37;;;16.10;1.00;;;;;;5037512;28;20430;-81
2021/09/13 02:18:24;;;;;;;13.87;12.67;;;16.10;1.00;;;;;;5011450;28;20467;-84
2021/09/13 02:20:51;;;;;;;13.20;12.00;;;16.10;1.00;;;;;;5023025;28;20488;-81
2021/09/13 02:23:18;;;;;;;13.27;11.97;;;16.20;1.00;;;;;;5019057;28;20565;-82
2021/09/13 02:25:45;;;;;;;13.57;12.27;;;16.20;1.00;;;;;;5025964;28;20580;-81
2021/09/13 02:28:11;;;;;;;13.50;12.30;;;16.30;1.00;;;;;;5027024;28;20468;-81
2021/09/13 02:30:38;;;;;;;14.03;12.50;;;16.30;1.00;;;;;;5020540;28;20432;-81
2021/09/13 02:33:06;;;;;;;12.90;11.60;;;16.30;1.00;;;;;;5019706;28;20466;-82
2021/09/13 02:35:34;;;;;;;13.23;11.93;;;16.30;1.00;;;;;;5004494;28;20478;-81
2021/09/13 02:38:00;;;;;;;12.17;11.07;;;16.30;1.00;;;;;;5018179;28;20465;-83
2021/09/13 02:40:27;;;;;;;12.80;11.57;;;16.30;1.00;;;;;;5018346;28;20475;-83
2021/09/13 02:42:54;;;;;;;12.77;11.03;;;16.30;1.00;;;;;;5020175;28;20476;-83
2021/09/13 02:45:21;;;;;;;12.03;10.83;;;16.30;1.00;;;;;;5020202;28;20458;-82
2021/09/13 02:47:48;;;;;;;13.00;11.80;;;16.30;1.00;;;;;;5022537;28;20429;-81
2021/09/13 02:50:16;;;;;;;11.73;10.50;;;16.30;1.00;;;;;;5019968;28;20492;-84
2021/09/13 02:52:42;;;;;;;12.63;11.30;;;16.30;1.00;;;;;;5020536;28;20597;-82
2021/09/13 02:55:10;;;;;;;12.50;11.40;;;16.30;1.00;;;;;;5018814;28;21772;-80
2021/09/13 02:57:36;;;;;;;11.60;10.50;;;16.20;1.00;;;;;;5016586;28;23023;-82
2021/09/13 03:00:04;;;;;;;11.87;10.77;;;16.20;1.00;;;;;;5019191;28;20504;-81
2021/09/13 03:02:31;;;;;;;11.43;10.43;;;16.20;1.00;;;;;;5017821;28;22121;-82
2021/09/13 03:04:57;;;;;;;14.43;13.00;;;16.20;1.00;;;;;;5022368;28;20478;-81
2021/09/13 03:07:28;;;;;;;11.50;10.40;;;16.30;1.00;;;;;;5021938;28;22899;-82
2021/09/13 03:09:55;;;;;;;15.87;10.70;;;16.20;1.00;;;;;;5019709;28;20450;-83
2021/09/13 03:12:22;;;;;;;12.80;10.27;;;16.20;1.00;;;;;;5015084;28;20594;-81
2021/09/13 03:14:48;;;;;;;12.93;11.47;;;16.10;1.00;;;;;;5022122;28;20471;-83
2021/09/13 03:17:15;;;;;;;11.80;10.60;;;16.10;1.00;;;;;;5023432;28;20462;-82
2021/09/13 03:19:42;;;;;;;13.00;11.37;;;16.10;1.00;;;;;;5023266;28;20454;-82
2021/09/13 03:22:08;;;;;;;11.67;10.67;;;16.00;1.00;;;;;;5014617;28;20621;-83
2021/09/13 03:24:37;;;;;;;12.43;11.10;;;16.00;1.00;;;;;;5032017;28;20411;-81
2021/09/13 03:27:04;;;;;;;11.80;10.60;;;16.00;1.00;;;;;;5026303;28;20466;-83
2021/09/13 03:29:30;;;;;;;12.07;10.80;;;15.90;1.00;;;;;;5026875;28;20692;-83
2021/09/13 03:31:57;;;;;;;12.67;11.33;;;15.90;1.00;;;;;;5026420;28;20474;-85
2021/09/13 03:34:24;;;;;;;12.97;11.70;;;15.90;1.00;;;;;;5021654;28;20530;-83
2021/09/13 03:36:50;;;;;;;12.40;11.10;;;15.90;1.00;;;;;;5024648;28;20484;-83
2021/09/13 03:39:17;;;;;;;13.57;12.27;;;15.80;1.00;;;;;;5025037;28;20991;-83
2021/09/13 03:41:45;;;;;;;13.60;12.30;;;15.80;1.00;;;;;;5023452;28;20618;-83
2021/09/13 03:44:12;;;;;;;13.70;12.40;;;15.70;1.00;;;;;;5020865;28;20409;-82
2021/09/13 03:46:39;;;;;;;15.80;13.10;;;15.70;1.00;;;;;;5023844;28;20414;-81
2021/09/13 03:49:05;;;;;;;13.73;12.43;;;15.70;1.00;;;;;;5023875;28;20874;-83
2021/09/13 03:51:34;;;;;;;13.63;12.30;;;15.70;1.00;;;;;;5010974;28;20490;-82
2021/09/13 03:54:01;;;;;;;14.47;12.83;;;15.70;1.00;;;;;;5022438;28;20524;-82
2021/09/13 03:56:28;;;;;;;14.77;13.37;;;15.70;1.00;;;;;;5023074;28;20468;-81
2021/09/13 03:58:56;;;;;;;15.73;13.00;;;15.70;1.00;;;;;;5024572;28;21413;-83
2021/09/13 04:01:23;;;;;;;14.40;12.90;;;15.70;1.00;;;;;;5028770;28;20590;-82
2021/09/13 04:03:50;;;;;;;12.83;11.67;;;15.70;1.00;;;;;;5035335;28;20557;-83
2021/09/13 04:06:25;;;;;;;13.03;11.70;;;15.80;1.00;;;;;;5045809;28;20450;-81
2021/09/13 04:11:49;;;;;;;12.73;10.80;;;15.70;1.00;;;;;;4988035;28;20478;-81
2021/09/13 04:14:17;;;;;;;11.10;10.00;;;15.80;1.00;;;;;;5028248;28;20454;-82
2021/09/13 04:16:44;;;;;;;14.70;11.53;;;15.70;1.00;;;;;;5024417;28;20472;-81
2021/09/13 04:19:11;;;;;;;11.97;10.77;;;15.70;1.00;;;;;;5024423;28;20441;-82
2021/09/13 04:21:38;;;;;;;10.27;9.20;;;15.80;1.00;;;;;;5003502;28;20450;-81
2021/09/13 04:24:05;;;;;;;14.53;11.63;;;15.80;1.00;;;;;;5024565;28;20560;-81
2021/09/13 04:26:32;;;;;;;10.87;8.50;;;15.90;1.00;;;;;;5028411;28;20462;-82
2021/09/13 04:28:59;;;;;;;9.70;7.97;;;15.90;1.00;;;;;;5026409;28;21286;-83
2021/09/13 04:31:28;;;;;;;10.23;8.20;;;15.90;1.00;;;;;;5040434;28;20456;-80
2021/09/13 04:33:54;;;;;;;10.60;9.07;;;15.90;1.00;;;;;;5037960;28;20456;-81
2021/09/13 04:36:22;;;;;;;8.50;7.33;;;15.90;1.00;;;;;;5025694;28;20484;-79
2021/09/13 04:38:49;;;;;;;8.77;7.40;;;15.90;1.00;;;;;;5024386;28;20605;-80
2021/09/13 04:41:16;;;;;;;7.93;7.20;;;15.80;1.00;;;;;;5023858;28;20441;-80
2021/09/13 04:43:42;;;;;;;9.30;7.17;;;15.80;1.00;;;;;;5021494;28;20480;-79
2021/09/13 04:46:09;;;;;;;7.90;7.10;;;15.80;1.00;;;;;;5002294;28;20555;-79
2021/09/13 04:48:37;;;;;;;9.97;6.67;;;15.90;1.00;;;;;;5023097;28;20586;-79
2021/09/13 04:51:05;;;;;;;7.63;6.73;;;15.90;1.00;;;;;;5020356;28;20470;-81
2021/09/13 04:53:32;;;;;;;8.40;6.43;;;15.80;1.00;;;;;;5022683;28;20510;-79
2021/09/13 04:55:59;;;;;;;9.50;7.20;;;15.80;1.00;;;;;;5024229;28;21431;-79
2021/09/13 04:58:26;;;;;;;6.47;5.87;;;15.80;1.00;;;;;;5023046;28;21692;-79
2021/09/13 05:00:52;;;;;;;7.63;6.20;;;15.80;1.00;;;;;;5029213;28;20636;-79
2021/09/13 05:03:19;;;;;;;7.57;6.77;;;15.80;1.00;;;;;;5029510;28;21076;-79
2021/09/13 05:05:47;;;;;;;7.60;5.87;;;15.90;1.00;;;;;;5028753;28;20454;-79
2021/09/13 05:08:14;;;;;;;8.20;7.00;;;15.90;1.00;;;;;;5026269;28;20445;-80
2021/09/13 05:10:42;;;;;;;17.60;8.43;;;15.90;1.00;;;;;;5010820;28;20438;-80
2021/09/13 05:13:08;;;;;;;7.30;6.60;;;16.00;1.00;;;;;;5021008;28;21280;-80
2021/09/13 05:15:35;;;;;;;8.87;6.33;;;16.10;1.00;;;;;;5028440;28;20458;-80
2021/09/13 05:18:02;;;;;;;6.63;5.60;;;16.20;1.00;;;;;;5024932;28;20501;-79
2021/09/13 05:20:29;;;;;;;5.97;5.47;;;16.30;1.00;;;;;;5026482;28;20466;-78
2021/09/13 05:22:57;;;;;;;9.90;5.20;;;16.40;1.00;;;;;;5032590;28;21291;-81
2021/09/13 05:25:23;;;;;;;8.00;6.40;;;16.40;1.00;;;;;;5029424;28;20469;-79
2021/09/13 05:27:50;;;;;;;8.73;6.07;;;16.40;1.00;;;;;;5033531;28;20950;-79
2021/09/13 05:30:17;;;;;;;7.30;6.13;;;16.40;1.00;;;;;;5035439;28;21416;-80
2021/09/13 05:32:44;;;;;;;7.80;6.50;;;16.40;1.00;;;;;;5033646;28;20482;-80
2021/09/13 05:35:11;;;;;;;8.87;6.97;;;16.40;1.00;;;;;;5038496;28;21357;-79
2021/09/13 05:37:38;;;;;;;10.37;6.03;;;16.40;1.00;;;;;;5037505;28;20437;-80
2021/09/13 05:40:08;;;;;;;7.53;6.33;;;16.30;1.00;;;;;;5038543;28;20438;-81
2021/09/13 05:42:35;;;;;;;8.10;5.73;;;16.30;1.00;;;;;;5042795;28;20496;-81
2021/09/13 05:45:02;;;;;;;7.00;5.47;;;16.30;1.00;;;;;;5040429;28;20568;-80
2021/09/13 05:47:28;;;;;;;8.20;7.20;;;16.30;1.00;;;;;;5034823;28;20471;-81
2021/09/13 05:50:19;;;;;;;9.10;6.80;;;16.30;1.00;;;;;;5039824;28;20451;-85
2021/09/13 05:53:12;;;;;;;10.97;8.20;;;16.40;1.00;;;;;;5039219;28;20420;-81
2021/09/13 05:55:43;;;;;;;13.43;8.30;;;16.40;1.00;;;;;;5045197;28;20522;-81
2021/09/13 05:58:09;;;;;;;9.03;7.20;;;16.40;1.00;;;;;;5042340;28;23865;-81
2021/09/13 06:00:36;;;;;;;10.33;6.33;;;16.50;1.00;;;;;;5050571;28;20428;-82
2021/09/13 06:03:03;;;;;;;7.33;6.63;;;16.50;1.00;;;;;;5039968;28;21338;-80
2021/09/13 06:05:30;;;;;;;7.63;6.00;;;16.50;1.00;;;;;;5037117;28;20462;-80
2021/09/13 06:07:56;;;;;;;8.00;7.10;;;16.60;1.00;;;;;;5041548;28;20412;-81
2021/09/13 06:10:23;;;;;;;5.87;5.17;;;16.60;1.00;;;;;;5037173;28;20487;-80
2021/09/13 06:12:51;;;;;;;15.50;6.70;;;16.70;1.00;;;;;;5039835;28;20443;-79
2021/09/13 06:15:18;;;;;;;6.80;6.00;;;16.70;1.00;;;;;;5051686;28;20451;-81
2021/09/13 06:17:45;;;;;;;7.67;4.87;;;16.70;1.00;;;;;;5040421;28;20471;-79
2021/09/13 06:20:13;;;;;;;7.23;5.27;;;16.70;1.00;;;;;;5038539;28;20482;-79
2021/09/13 06:22:40;;;;;;;7.43;5.40;;;16.70;1.00;;;;;;5035536;28;20458;-79
2021/09/13 06:25:08;;;;;;;6.27;4.90;;;16.70;1.00;;;;;;5037259;28;20451;-81
2021/09/13 06:27:35;;;;;;;6.00;4.90;;;16.80;1.00;;;;;;5039413;28;20475;-80
2021/09/13 06:30:03;;;;;;;8.67;5.00;;;16.80;1.00;;;;;;5038645;28;20436;-80
2021/09/13 06:32:31;;;;;;;7.50;4.80;;;16.80;1.00;;;;;;5037366;28;20452;-80
2021/09/13 06:34:57;;;;;;;6.53;4.40;;;16.80;1.00;;;;;;5034354;28;20451;-80
2021/09/13 06:37:24;;;;;;;8.60;4.73;;;16.90;1.00;;;;;;5031715;28;20428;-80
2021/09/13 06:39:57;;;;;;;6.40;4.27;;;17.00;1.00;;;;;;5034987;28;20463;-80
2021/09/13 06:42:23;;;;;;;7.37;5.57;;;17.10;1.00;;;;;;5044295;28;20463;-79
2021/09/13 06:44:50;;;;;;;5.00;4.60;;;17.20;1.00;;;;;;5033291;28;20483;-80
2021/09/13 06:47:33;;;;;;;6.30;4.73;;;17.30;1.00;;;;;;5037737;28;20445;-80
2021/09/13 06:50:00;;;;;;;6.50;4.80;;;17.40;1.00;;;;;;5043497;28;20452;-81
2021/09/13 06:52:27;;;;;;;6.50;5.80;;;17.50;1.00;;;;;;5041710;28;21230;-80
2021/09/13 06:54:53;;;;;;;7.90;5.47;;;17.50;1.00;;;;;;5034151;28;21085;-80
2021/09/13 06:57:20;;;;;;;8.03;5.20;;;17.50;1.00;;;;;;5041110;28;20849;-81
2021/09/13 06:59:50;;;;;;;6.03;5.17;;;17.60;1.00;;;;;;5045562;28;20487;-79
2021/09/13 07:02:18;;;;;;;8.27;6.17;;;17.70;1.00;;;;;;5039923;28;20546;-79
2021/09/13 07:04:45;;;;;;;8.43;5.37;;;17.80;1.00;;;;;;5040927;28;20836;-79
2021/09/13 07:07:11;;;;;;;6.83;5.60;;;17.80;1.00;;;;;;5044625;28;20492;-78
2021/09/13 07:09:38;;;;;;;6.30;4.50;;;17.80;1.00;;;;;;5049055;28;21186;-82
2021/09/13 07:12:06;;;;;;;5.07;4.50;;;17.90;1.00;;;;;;5045368;28;20439;-79
2021/09/13 07:14:46;;;;;;;7.23;5.00;;;18.00;1.00;;;;;;5055227;28;20452;-81
2021/09/13 07:17:13;;;;;;;4.60;3.57;;;18.10;1.00;;;;;;5056592;28;20424;-83
2021/09/13 07:19:41;;;;;;;3.90;3.13;;;18.30;1.00;;;;;;5051760;28;20412;-78
2021/09/13 07:22:08;;;;;;;5.40;3.40;;;18.30;1.00;;;;;;5028219;28;20456;-81
2021/09/13 07:24:35;;;;;;;4.83;3.80;;;18.40;1.00;;;;;;5040712;28;20593;-83
2021/09/13 07:27:01;;;;;;;6.20;5.33;;;18.40;1.00;;;;;;5039787;28;20483;-78
2021/09/13 07:29:28;;;;;;;5.13;4.40;;;18.40;1.00;;;;;;5050807;28;20440;-79
2021/09/13 07:31:58;;;;;;;5.30;4.80;;;18.50;1.00;;;;;;5040187;28;20795;-79
2021/09/13 07:34:27;;;;;;;6.33;4.20;;;18.50;1.00;;;;;;5040843;28;20453;-78
2021/09/13 07:36:55;;;;;;;7.87;6.90;;;18.50;1.00;;;;;;5045486;28;20490;-79
2021/09/13 07:39:22;;;;;;;7.00;3.83;;;18.60;1.00;;;;;;5041732;28;20825;-79
2021/09/13 07:41:49;;;;;;;7.03;4.07;;;18.60;1.00;;;;;;5031407;28;20492;-79
2021/09/13 07:44:17;;;;;;;5.80;3.60;;;18.70;1.00;;;;;;5031912;28;20456;-80
2021/09/13 07:46:46;;;;;;;6.30;4.60;;;18.70;1.00;;;;;;5025107;28;20433;-79
2021/09/13 07:49:13;;;;;;;6.00;4.30;;;18.80;1.00;;;;;;5022479;28;20456;-81
2021/09/13 07:51:40;;;;;;;10.03;5.30;;;18.90;1.00;;;;;;5027978;28;20456;-81
2021/09/13 07:54:10;;;;;;;6.40;5.50;;;19.00;1.00;;;;;;5030525;28;20476;-81
2021/09/13 07:56:37;;;;;;;4.07;3.60;;;19.10;1.00;;;;;;5035415;28;20940;-81
2021/09/13 07:59:05;;;;;;;6.10;3.90;;;19.10;1.00;;;;;;5045445;28;20488;-80
2021/09/13 08:01:32;;;;;;;6.87;3.87;;;19.10;1.00;;;;;;5027206;28;20479;-80
2021/09/13 08:03:59;;;;;;;7.03;3.70;;;19.20;1.00;;;;;;5032947;28;20467;-82
2021/09/13 08:06:26;;;;;;;5.80;4.03;;;19.40;1.00;;;;;;5027406;28;20550;-81
2021/09/13 08:08:53;;;;;;;6.20;3.97;;;19.40;1.00;;;;;;5040611;28;20448;-80
2021/09/13 08:11:21;;;;;;;4.33;3.67;;;19.40;1.00;;;;;;5040982;28;20484;-82
2021/09/13 08:13:48;;;;;;;9.90;4.20;;;19.50;1.00;;;;;;5043342;28;20429;-81
2021/09/13 08:16:15;;;;;;;8.43;3.50;;;19.60;1.00;;;;;;5051699;28;20460;-81
2021/09/13 08:18:42;;;;;;;5.53;3.53;;;19.80;1.00;;;;;;5022671;28;20479;-82
2021/09/13 08:21:09;;;;;;;5.93;3.73;;;19.80;1.00;;;;;;5043490;28;20480;-82
2021/09/13 08:23:36;;;;;;;3.90;3.47;;;19.90;1.00;;;;;;5041804;28;22292;-79
2021/09/13 08:26:03;;;;;;;4.23;3.27;;;20.10;1.00;;;;;;5008899;28;20590;-80
2021/09/13 08:28:32;;;;;;;5.80;3.90;;;20.20;1.00;;;;;;5027569;28;20889;-81
2021/09/13 08:30:59;;;;;;;5.10;3.27;;;20.30;1.00;;;;;;5029273;28;20918;-80
2021/09/13 08:33:26;;;;;;;7.90;3.60;;;20.40;1.00;;;;;;5024041;28;21849;-83
2021/09/13 08:35:54;;;;;;;9.43;4.30;;;20.60;1.00;;;;;;5023274;28;20452;-80
2021/09/13 08:38:21;;;;;;;3.97;2.60;;;20.80;1.00;;;;;;5025417;28;21357;-80
2021/09/13 08:40:48;;;;;;;4.80;2.80;;;20.90;1.00;;;;;;5022635;28;21842;-80
2021/09/13 08:43:15;;;;;;;4.50;2.70;;;21.00;1.00;;;;;;5021012;28;20510;-80
2021/09/13 08:45:48;;;;;;;6.00;3.27;;;21.10;1.00;;;;;;5026268;28;21536;-79
2021/09/13 08:48:18;;;;;;;3.80;2.67;;;21.20;1.00;;;;;;5023308;28;20525;-79
2021/09/13 08:53:37;;;;;;;4.20;2.60;;;21.40;1.00;;;;;;5014554;28;20456;-79
2021/09/13 08:56:08;;;;;;;2.90;2.43;;;21.40;1.00;;;;;;5021044;28;20802;-79
2021/09/13 08:58:35;;;;;;;6.20;2.70;;;21.50;1.00;;;;;;5022030;28;20510;-79
2021/09/13 09:01:03;;;;;;;3.50;2.67;;;21.60;1.00;;;;;;5029167;28;20613;-79
2021/09/13 09:03:31;;;;;;;4.00;2.73;;;21.50;1.00;;;;;;5023987;28;20451;-80
2021/09/13 09:05:58;;;;;;;3.43;2.50;;;21.50;1.00;;;;;;5031481;28;20515;-81
2021/09/13 09:08:26;;;;;;;5.27;2.50;;;21.50;1.00;;;;;;5038075;28;20478;-82
2021/09/13 09:10:55;;;;;;;4.87;2.97;;;21.60;1.00;;;;;;5032581;28;20458;-81
2021/09/13 09:13:23;;;;;;;12.20;4.30;;;21.80;1.00;;;;;;5025571;28;20468;-80
2021/09/13 09:15:56;;;;;;;4.77;2.90;;;22.20;1.00;;;;;;5027046;28;21236;-81
2021/09/13 09:18:24;;;;;;;6.23;3.30;;;23.00;1.00;;;;;;5033561;28;20485;-80
2021/09/13 09:20:51;;;;;;;2.70;1.93;;;23.90;1.00;;;;;;5027829;28;20452;-79
2021/09/13 09:23:18;;;;;;;4.03;2.70;;;24.50;1.00;;;;;;5024172;28;20443;-80
2021/09/13 09:25:47;;;;;;;5.33;4.03;;;25.40;1.00;;;;;;5021493;28;20465;-80
2021/09/13 09:28:16;;;;;;;3.60;2.33;;;26.20;1.00;;;;;;5024457;28;20447;-75
2021/09/13 09:30:44;;;;;;;3.10;2.57;;;26.70;1.00;;;;;;5024949;28;20557;-76
2021/09/13 09:33:13;;;;;;;3.47;2.17;;;26.90;1.00;;;;;;5030543;28;20447;-79
2021/09/13 09:35:50;;;;;;;3.20;2.70;;;26.60;1.00;;;;;;5032389;28;20446;-78
2021/09/13 09:38:37;;;;;;;3.73;2.53;;;26.80;1.00;;;;;;5023865;28;20472;-75
2021/09/13 09:41:07;;;;;;;2.87;2.20;;;27.60;1.00;;;;;;5027384;28;20537;-78
2021/09/13 09:43:49;;;;;;;2.80;1.87;;;28.10;1.00;;;;;;5023980;28;22073;-78
2021/09/13 09:46:17;;;;;;;2.67;2.10;;;28.50;1.00;;;;;;5027723;28;20502;-76
2021/09/13 09:48:43;;;;;;;2.70;2.23;;;28.50;1.00;;;;;;5032308;28;20979;-75
2021/09/13 09:54:11;;;;;;;3.10;2.80;;;28.90;1.00;;;;;;5104659;27;1191742;-77
2021/09/13 09:56:38;;;;;;;5.30;3.20;;;27.30;1.00;;;;;;5144192;27;21217;-76
2021/09/13 09:59:06;;;;;;;6.00;3.97;;;26.30;1.00;;;;;;5140492;27;21879;-82
2021/09/13 10:01:35;;;;;;;4.13;3.33;;;25.80;1.00;;;;;;5144287;27;20474;-76
2021/09/13 10:04:19;;;;;;;4.10;3.20;;;25.70;1.00;;;;;;5150611;27;20463;-78
2021/09/13 10:06:47;;;;;;;3.53;3.17;;;26.20;1.00;;;;;;5145610;27;20422;-76
2021/09/13 10:09:16;;;;;;;4.87;3.23;;;26.50;1.00;;;;;;5136966;27;20429;-81
2021/09/13 10:11:43;;;;;;;5.70;3.23;;;25.80;1.00;;;;;;5140391;27;20447;-77
2021/09/13 10:14:12;;;;;;;6.20;3.50;;;25.60;1.00;;;;;;5141407;27;20929;-78
2021/09/13 10:16:41;;;;;;;3.30;2.87;;;25.30;1.00;;;;;;5143681;27;20440;-78
2021/09/13 10:19:07;;;;;;;3.77;3.30;;;25.30;1.00;;;;;;5157584;27;20467;-78
2021/09/13 10:21:35;;;;;;;4.00;3.60;;;25.50;1.00;;;;;;5145822;27;20469;-77
2021/09/13 10:24:03;;;;;;;4.23;3.83;;;26.50;1.00;;;;;;5138314;27;20532;-78
2021/09/13 10:26:31;;;;;;;3.60;3.20;;;26.70;1.00;;;;;;5139411;27;20421;-80
2021/09/13 10:29:22;;;;;;;3.93;3.20;;;26.10;1.00;;;;;;5140916;27;20444;-78
2021/09/13 10:31:57;;;;;;;6.57;4.23;;;25.20;1.00;;;;;;5123409;27;21430;-79
2021/09/13 10:34:25;;;;;;;3.33;2.67;;;24.60;1.00;;;;;;5143648;27;20530;-79
2021/09/13 10:37:06;;;;;;;3.80;2.93;;;24.10;1.00;;;;;;5140931;27;20499;-79
2021/09/13 10:40:00;;;;;;;2.97;2.47;;;23.50;1.00;;;;;;5143694;27;20467;-79
2021/09/13 10:42:33;;;;;;;4.00;2.40;;;23.50;1.00;;;;;;5141742;27;21679;-82
2021/09/13 10:45:06;;;;;;;4.50;2.23;;;23.50;1.00;;;;;;5145499;27;20444;-83
2021/09/13 10:47:34;;;;;;;3.80;2.10;;;23.20;1.00;;;;;;5153393;27;20523;-80
2021/09/13 10:50:23;;;;;;;3.57;2.03;;;22.80;1.00;;;;;;5150972;27;21309;-80
2021/09/13 10:52:50;;;;;;;3.20;2.37;;;22.70;1.00;;;;;;5153442;27;20469;-79
2021/09/13 10:55:29;;;;;;;3.53;2.33;;;22.70;1.00;;;;;;5153537;27;20463;-79
2021/09/13 10:58:03;;;;;;;2.97;2.43;;;22.80;1.00;;;;;;5151282;27;20441;-80
2021/09/13 11:01:02;;;;;;;4.10;2.50;;;23.00;1.00;;;;;;5156589;27;20494;-80
2021/09/13 11:03:38;;;;;;;2.70;2.30;;;23.50;1.00;;;;;;5147923;27;20471;-80
2021/09/13 11:06:20;;;;;;;3.47;2.40;;;24.80;1.00;;;;;;5130445;27;20985;-77
2021/09/13 11:08:49;;;;;;;3.10;1.93;;;26.80;1.00;;;;;;5132771;27;20520;-79
2021/09/13 11:11:19;;;;;;;6.40;2.40;;;28.60;1.00;;;;;;5135899;27;20439;-78
2021/09/13 11:13:49;;;;;;;3.43;2.47;;;29.60;1.00;;;;;;5134180;27;20463;-81
2021/09/13 11:16:17;;;;;;;2.30;2.10;;;29.40;1.00;;;;;;5130960;27;20580;-81
2021/09/13 11:18:46;;;;;;;3.30;2.20;;;28.40;1.00;;;;;;5135101;27;20446;-81
2021/09/13 11:21:15;;;;;;;4.43;2.37;;;26.90;1.00;;;;;;5136676;27;21081;-83
2021/09/13 11:23:42;;;;;;;2.80;1.97;;;25.60;1.00;;;;;;5138723;27;20954;-79
2021/09/13 11:26:09;;;;;;;2.63;2.23;;;24.70;1.00;;;;;;5139497;27;20459;-81
2021/09/13 11:28:56;;;;;;;4.80;2.50;;;23.90;1.00;;;;;;5131231;27;21911;-78
2021/09/13 11:31:41;;;;;;;3.30;2.57;;;23.40;1.00;;;;;;5126237;27;20445;-79
2021/09/13 11:34:20;;;;;;;5.00;2.40;;;23.10;1.00;;;;;;5124195;27;20923;-79
2021/09/13 11:37:04;;;;;;;3.20;2.33;;;23.00;1.00;;;;;;5125805;27;20498;-79
2021/09/13 11:39:32;;;;;;;5.07;2.60;;;23.00;1.00;;;;;;5124321;27;20871;-80
2021/09/13 11:42:02;;;;;;;3.90;2.30;;;23.10;1.00;;;;;;5125036;27;20464;-79
2021/09/13 11:44:31;;;;;;;4.00;2.27;;;22.90;1.00;;;;;;5130605;27;20447;-79
2021/09/13 11:47:01;;;;;;;2.60;2.40;;;22.80;1.00;;;;;;5107337;27;20574;-80
2021/09/13 11:49:29;;;;;;;3.73;2.60;;;22.80;1.00;;;;;;5123112;27;20541;-79
2021/09/13 11:52:14;;;;;;;2.63;2.43;;;23.20;1.00;;;;;;5129899;27;21219;-80
2021/09/13 11:54:47;;;;;;;2.53;2.33;;;23.80;1.00;;;;;;5126257;27;20445;-80
2021/09/13 11:57:31;;;;;;;3.70;3.20;;;25.40;1.00;;;;;;5123813;27;20453;-79
2021/09/13 12:00:00;;;;;;;3.80;2.27;;;26.20;1.00;;;;;;5122705;27;20454;-79
2021/09/13 12:02:30;;;;;;;4.77;3.33;;;26.20;1.00;;;;;;5125502;27;20445;-80
2021/09/13 12:04:59;;;;;;;3.20;2.50;;;25.80;1.00;;;;;;5120534;27;20449;-79
2021/09/13 12:07:26;;;;;;;3.20;2.23;;;25.50;1.00;;;;;;5115458;27;20572;-82
2021/09/13 12:09:55;;;;;;;3.50;2.33;;;25.20;1.00;;;;;;5121183;27;20452;-80
2021/09/13 12:12:24;;;;;;;3.53;2.13;;;24.90;1.00;;;;;;5120539;27;20467;-80
2021/09/13 12:14:54;;;;;;;6.90;3.10;;;24.70;1.00;;;;;;5122174;27;20471;-78
2021/09/13 12:17:23;;;;;;;8.90;3.57;;;24.70;1.00;;;;;;5127201;27;20463;-79
2021/09/13 12:20:09;;;;;;;3.47;2.50;;;25.30;1.00;;;;;;5131394;27;20514;-81
2021/09/13 12:22:36;;;;;;;2.90;2.10;;;26.40;1.00;;;;;;5136205;27;20470;-81
2021/09/13 12:25:09;;;;;;;3.30;1.80;;;27.80;1.00;;;;;;5140170;27;20401;-82
2021/09/13 12:27:41;;;;;;;2.77;2.57;;;29.00;1.00;;;;;;5133202;27;20445;-81
2021/09/13 12:30:13;;;;;;;2.70;2.00;;;29.00;1.00;;;;;;5129462;27;20529;-80
2021/09/13 12:32:50;;;;;;;3.03;2.10;;;28.10;1.00;;;;;;5124908;27;20435;-81
2021/09/13 12:35:16;;;;;;;4.67;3.00;;;27.10;1.00;;;;;;5129811;27;20496;-81
2021/09/13 12:37:43;;;;;;;2.77;2.10;;;26.10;1.00;;;;;;5144039;27;21044;-81
2021/09/13 12:40:13;;;;;;;4.20;2.77;;;25.30;1.00;;;;;;5144036;27;20408;-80
2021/09/13 12:42:52;;;;;;;4.63;2.70;;;24.80;1.00;;;;;;5110539;27;20472;-80
2021/09/13 12:45:20;;;;;;;4.50;2.43;;;24.40;1.00;;;;;;5128284;27;24118;-80
2021/09/13 12:47:53;;;;;;;2.73;2.50;;;23.90;1.00;;;;;;5128190;27;20443;-81
2021/09/13 12:50:34;;;;;;;3.50;2.77;;;23.50;1.00;;;;;;5128791;27;20562;-80
2021/09/13 12:53:06;;;;;;;3.63;2.37;;;23.30;1.00;;;;;;5133759;27;20454;-79
2021/09/13 12:55:39;;;;;;;3.33;2.60;;;23.00;1.00;;;;;;5125723;27;21443;-80
2021/09/13 12:58:27;;;;;;;2.60;2.40;;;22.90;1.00;;;;;;5123478;27;20553;-80
2021/09/13 13:00:55;;;;;;;3.43;3.00;;;22.80;1.00;;;;;;5124386;27;20453;-81
2021/09/13 13:03:24;;;;;;;6.60;4.07;;;22.70;1.00;;;;;;5124536;27;21349;-80
2021/09/13 13:05:53;;;;;;;3.60;2.40;;;22.50;1.00;;;;;;5130369;27;20447;-80
2021/09/13 13:08:21;;;;;;;2.33;2.13;;;22.30;1.00;;;;;;5129098;27;20607;-79